KBBB/BBB METAR and TAF weather

Enter ICAO airport designator
Station Type Date Time Source
KBBB METAR 2020/03/28 21:36 UTC NOAA

KBBB 282136Z AUTO 07017G25KT 10SM -DZ SCT037 BKN049 05/03 A2964 RMK AO2


Station Type Date Time Source
KBBB Decoded METAR 2020/03/28 21:36 UTC NOAA

Benson Municipal, MN, United States (KBBB) 45-19N 095-39W
Mar 28, 2020 - 05:36 PM EDT / 2020.03.28 2136 UTC
Wind: from the ENE (070 degrees) at 20 MPH (17 KT) gusting to 29 MPH (25 KT):0
Visibility: 10 mile(s):0
Sky conditions: mostly cloudy
Weather: light drizzle
Temperature: 41 F (5 C)
Dew Point: 37 F (3 C)
Relative Humidity: 86%
Pressure (altimeter): 29.64 in. Hg (1003 hPa)
ob: KBBB 282136Z AUTO 07017G25KT 10SM -DZ SCT037 BKN049 05/03 A2964 RMK AO2
cycle: 21

Station Type Date Time Source
KBBB TAF UTC NOAA

Error!

Example: see airport list